createdAt,value
2023-02-06T00:01:30.935Z,4.90
2023-02-06T00:03:58.988Z,7.20
2023-02-06T00:06:27.256Z,19.30
2023-02-06T00:08:55.307Z,11.90
2023-02-06T00:11:23.624Z,7.10
2023-02-06T00:13:52.376Z,4.40
2023-02-06T00:16:20.527Z,5.60
2023-02-06T00:18:49.432Z,6.40
2023-02-06T00:21:20.378Z,5.30
2023-02-06T00:23:49.473Z,4.40
2023-02-06T00:26:18.098Z,4.20
2023-02-06T00:28:47.452Z,3.90
2023-02-06T00:31:16.166Z,4.30
2023-02-06T00:33:44.381Z,8.30
2023-02-06T00:36:12.593Z,11.30
2023-02-06T00:38:40.764Z,12.70
2023-02-06T00:41:08.786Z,10.90
2023-02-06T00:43:37.525Z,18.70
2023-02-06T00:46:06.029Z,16.10
2023-02-06T00:48:34.375Z,14.10
2023-02-06T00:51:02.858Z,14.80
2023-02-06T00:53:30.860Z,15.80
2023-02-06T00:55:59.732Z,14.20
2023-02-06T00:58:27.816Z,13.80
2023-02-06T01:00:55.907Z,12.30
2023-02-06T01:03:25.926Z,11.90
2023-02-06T01:05:54.355Z,5.50
2023-02-06T01:08:23.267Z,5.90
2023-02-06T01:10:53.206Z,5.90
2023-02-06T01:13:21.339Z,5.50
2023-02-06T01:15:51.190Z,5.60
2023-02-06T01:18:19.587Z,7.20
2023-02-06T01:20:47.703Z,5.90
2023-02-06T01:23:15.863Z,7.10
2023-02-06T01:25:45.574Z,7.90
2023-02-06T01:28:13.735Z,7.00
2023-02-06T01:30:41.971Z,8.40
2023-02-06T01:33:10.097Z,8.50
2023-02-06T01:35:38.571Z,8.10
2023-02-06T01:38:09.000Z,7.70
2023-02-06T01:40:37.072Z,6.90
2023-02-06T01:43:11.417Z,6.70
2023-02-06T01:45:45.092Z,6.90
2023-02-06T01:48:26.062Z,7.60
2023-02-06T01:50:56.961Z,6.90
2023-02-06T01:53:25.479Z,6.50
2023-02-06T01:55:54.727Z,8.50
2023-02-06T01:58:45.212Z,10.10
2023-02-06T02:01:14.585Z,7.70
2023-02-06T02:03:44.684Z,7.10
2023-02-06T02:06:16.479Z,10.60
2023-02-06T02:08:46.986Z,9.40
2023-02-06T02:11:20.312Z,10.00
2023-02-06T02:13:51.130Z,7.40
2023-02-06T02:16:44.888Z,6.60
2023-02-06T02:19:21.385Z,6.60
2023-02-06T02:21:58.801Z,7.50
2023-02-06T02:24:51.605Z,7.70
2023-02-06T02:27:33.292Z,9.50
2023-02-06T02:30:24.878Z,8.10
2023-02-06T02:33:19.313Z,8.80
2023-02-06T02:35:58.405Z,11.00
2023-02-06T02:38:46.884Z,12.90
2023-02-06T02:41:27.258Z,12.90
2023-02-06T02:44:05.308Z,11.40
2023-02-06T02:46:57.684Z,9.10
2023-02-06T02:49:30.211Z,6.80
2023-02-06T02:52:00.600Z,12.80
2023-02-06T02:54:28.859Z,8.20
2023-02-06T02:57:05.344Z,7.00
2023-02-06T02:59:41.549Z,7.30
2023-02-06T03:02:24.972Z,8.80
2023-02-06T03:07:58.330Z,8.00
2023-02-06T03:10:38.708Z,9.50
2023-02-06T03:13:31.956Z,6.80
2023-02-06T03:16:24.274Z,8.60
2023-02-06T03:19:02.097Z,8.80
2023-02-06T03:21:31.704Z,9.40
2023-02-06T03:24:03.237Z,9.50
2023-02-06T03:26:32.868Z,9.90
2023-02-06T03:29:05.434Z,11.40
2023-02-06T03:31:35.674Z,12.30
2023-02-06T03:34:34.036Z,13.00
2023-02-06T03:37:02.313Z,13.10
2023-02-06T03:39:30.925Z,14.40
2023-02-06T03:42:01.280Z,15.20
2023-02-06T03:44:34.570Z,14.30
2023-02-06T03:49:34.454Z,19.60
2023-02-06T03:52:18.011Z,23.90
2023-02-06T03:54:54.072Z,18.70
2023-02-06T03:57:24.141Z,16.10
2023-02-06T03:59:52.367Z,18.90
2023-02-06T04:02:22.830Z,19.00
2023-02-06T04:04:51.134Z,13.40
2023-02-06T04:07:24.963Z,23.00
2023-02-06T04:09:53.284Z,23.80
2023-02-06T04:12:23.860Z,28.60
2023-02-06T04:14:52.767Z,23.00
2023-02-06T04:17:40.720Z,20.60
2023-02-06T04:20:09.956Z,14.70
2023-02-06T04:22:39.811Z,12.20
2023-02-06T04:25:08.180Z,12.70
2023-02-06T04:27:37.481Z,16.30
2023-02-06T04:30:06.463Z,12.10
2023-02-06T04:32:34.634Z,10.30
2023-02-06T04:35:02.727Z,8.80
2023-02-06T04:37:30.917Z,8.10
2023-02-06T04:39:58.966Z,19.20
2023-02-06T04:42:27.325Z,27.70
2023-02-06T04:44:55.499Z,29.00
2023-02-06T04:47:23.930Z,21.20
2023-02-06T04:49:52.053Z,5.40
2023-02-06T04:52:20.433Z,5.60
2023-02-06T04:54:49.213Z,5.30
2023-02-06T04:57:17.391Z,5.70
2023-02-06T04:59:45.561Z,5.40
2023-02-06T05:02:13.602Z,7.10
2023-02-06T05:04:41.801Z,20.80
2023-02-06T05:07:09.872Z,21.10
2023-02-06T05:09:38.055Z,13.40
2023-02-06T05:12:06.423Z,20.30
2023-02-06T05:14:34.619Z,22.80
2023-02-06T05:17:02.788Z,24.90
2023-02-06T05:19:30.794Z,11.10
2023-02-06T05:21:58.915Z,14.90
2023-02-06T05:24:27.287Z,26.50
2023-02-06T05:26:58.021Z,23.50
2023-02-06T05:29:26.366Z,35.90
2023-02-06T05:31:54.498Z,46.30
2023-02-06T05:34:22.883Z,40.10
2023-02-06T05:36:50.871Z,47.30
2023-02-06T05:39:19.197Z,34.30
2023-02-06T05:41:47.313Z,28.60
2023-02-06T05:44:15.576Z,23.10
2023-02-06T05:46:44.365Z,29.50
2023-02-06T05:49:12.330Z,19.70
2023-02-06T05:51:40.677Z,13.90
2023-02-06T05:54:08.708Z,5.50
2023-02-06T05:56:37.026Z,20.50
2023-02-06T05:59:05.097Z,22.80
2023-02-06T06:01:33.112Z,23.10
2023-02-06T06:04:01.660Z,25.30
2023-02-06T06:06:29.680Z,30.50
2023-02-06T06:08:57.973Z,22.70
2023-02-06T06:11:26.071Z,8.80
2023-02-06T06:13:54.248Z,5.60
2023-02-06T06:16:22.419Z,6.30
2023-02-06T06:18:50.698Z,6.80
2023-02-06T06:21:18.767Z,20.70
2023-02-06T06:23:46.876Z,25.00
2023-02-06T06:26:15.525Z,22.90
2023-02-06T06:28:43.530Z,24.10
2023-02-06T06:31:12.738Z,25.10
2023-02-06T06:33:41.708Z,25.90
2023-02-06T06:36:14.307Z,25.30
2023-02-06T06:38:42.689Z,16.40
2023-02-06T06:41:10.738Z,62.60
2023-02-06T06:43:39.811Z,30.10
2023-02-06T06:46:08.773Z,16.20
2023-02-06T06:48:38.409Z,18.00
2023-02-06T06:51:07.183Z,33.20
2023-02-06T06:53:40.186Z,49.30
2023-02-06T06:56:12.282Z,15.80
2023-02-06T06:58:41.459Z,44.40
2023-02-06T07:01:09.980Z,40.90
2023-02-06T07:03:38.559Z,75.50
2023-02-06T07:06:06.658Z,30.80
2023-02-06T07:08:36.083Z,29.70
2023-02-06T07:11:04.249Z,22.20
2023-02-06T07:13:32.319Z,21.60
2023-02-06T07:16:00.398Z,22.30
2023-02-06T07:18:28.661Z,17.80
2023-02-06T07:20:56.836Z,18.90
2023-02-06T07:23:25.012Z,96.00
2023-02-06T07:25:54.121Z,22.90
2023-02-06T07:28:22.286Z,20.00
2023-02-06T07:30:50.302Z,19.90
2023-02-06T07:33:18.474Z,27.90
2023-02-06T07:35:46.906Z,18.40
2023-02-06T07:38:14.998Z,15.70
2023-02-06T07:40:45.376Z,16.50
2023-02-06T07:43:14.404Z,17.20
2023-02-06T07:45:42.828Z,14.90
2023-02-06T07:48:11.678Z,14.30
2023-02-06T07:50:39.946Z,16.10
2023-02-06T07:53:08.135Z,17.20
2023-02-06T07:55:38.475Z,18.40
2023-02-06T07:58:07.015Z,16.40
2023-02-06T08:00:35.292Z,17.30
2023-02-06T08:03:05.106Z,17.50
2023-02-06T08:05:34.302Z,20.40
2023-02-06T08:08:02.619Z,28.70
2023-02-06T08:10:30.787Z,26.60
2023-02-06T08:12:58.932Z,24.00
2023-02-06T08:15:27.096Z,22.50
2023-02-06T08:17:55.076Z,23.40
2023-02-06T08:20:23.237Z,29.70
2023-02-06T08:22:51.308Z,30.50
2023-02-06T08:25:19.484Z,62.50
2023-02-06T08:27:47.543Z,26.40
2023-02-06T08:30:15.697Z,53.20
2023-02-06T08:32:43.701Z,34.80
2023-02-06T08:35:12.342Z,27.90
2023-02-06T08:37:40.864Z,24.10
2023-02-06T08:40:09.842Z,21.20
2023-02-06T08:42:37.931Z,29.90
2023-02-06T08:45:06.623Z,19.50
2023-02-06T08:47:34.785Z,16.60
2023-02-06T08:50:03.742Z,14.70
2023-02-06T08:52:32.217Z,10.20
2023-02-06T08:55:00.640Z,14.90
2023-02-06T08:57:28.913Z,12.40
2023-02-06T08:59:57.188Z,11.00
2023-02-06T09:02:25.232Z,9.30
2023-02-06T09:04:53.534Z,12.90
2023-02-06T09:07:22.634Z,12.40
2023-02-06T09:09:50.700Z,13.40
2023-02-06T09:12:18.808Z,9.50
2023-02-06T09:14:46.987Z,9.00
2023-02-06T09:17:15.224Z,9.20
2023-02-06T09:19:43.619Z,9.30
2023-02-06T09:22:11.876Z,10.30
2023-02-06T09:24:40.773Z,8.00
2023-02-06T09:27:08.934Z,9.10
2023-02-06T09:29:37.024Z,8.70
2023-02-06T09:32:05.248Z,8.00
2023-02-06T09:34:34.180Z,10.60
2023-02-06T09:37:03.770Z,8.70
2023-02-06T09:39:33.096Z,9.10
2023-02-06T09:42:16.537Z,24.50
2023-02-06T09:44:53.687Z,7.00
2023-02-06T09:47:41.122Z,5.10
2023-02-06T09:50:36.666Z,6.20
2023-02-06T09:53:07.774Z,6.50
2023-02-06T09:55:46.943Z,6.80
2023-02-06T09:58:26.992Z,8.30
2023-02-06T10:01:06.888Z,6.90
2023-02-06T10:03:35.284Z,7.20
2023-02-06T10:06:19.510Z,7.30
2023-02-06T10:09:03.647Z,13.10
2023-02-06T10:11:48.468Z,9.10
2023-02-06T10:14:35.564Z,9.00
2023-02-06T10:17:12.989Z,7.40
2023-02-06T10:20:30.276Z,8.10
2023-02-06T10:23:24.641Z,12.30
2023-02-06T10:26:08.504Z,8.30
2023-02-06T10:28:36.989Z,10.70
2023-02-06T10:31:11.230Z,7.00
2023-02-06T10:33:45.141Z,7.60
2023-02-06T10:36:34.893Z,6.60
2023-02-06T10:39:21.090Z,7.00
2023-02-06T10:42:04.726Z,8.80
2023-02-06T10:47:46.540Z,6.50
2023-02-06T10:50:20.200Z,7.20
2023-02-06T10:55:27.137Z,7.60
2023-02-06T10:58:05.768Z,7.30
2023-02-06T11:00:34.774Z,8.00
2023-02-06T11:03:10.728Z,8.00
2023-02-06T11:05:39.221Z,5.80
2023-02-06T11:08:27.649Z,6.00
2023-02-06T11:10:56.316Z,6.60
2023-02-06T11:13:37.278Z,6.80
2023-02-06T11:16:16.476Z,6.30
2023-02-06T11:18:46.487Z,5.70
2023-02-06T11:21:35.820Z,5.60
2023-02-06T11:24:13.217Z,6.60
2023-02-06T11:26:51.055Z,9.50
2023-02-06T11:29:25.446Z,5.40
2023-02-06T11:31:58.717Z,5.80
2023-02-06T11:34:51.066Z,6.20
2023-02-06T11:37:38.743Z,5.70
2023-02-06T11:40:19.217Z,5.70
2023-02-06T11:42:53.590Z,5.60
2023-02-06T11:45:28.025Z,6.70
2023-02-06T11:47:56.842Z,6.60
2023-02-06T11:50:36.379Z,6.20
2023-02-06T11:53:12.002Z,7.20
2023-02-06T11:55:42.692Z,6.70
2023-02-06T11:58:13.992Z,5.70
2023-02-06T12:00:56.994Z,6.50
2023-02-06T12:03:33.443Z,8.30
2023-02-06T12:06:39.393Z,6.50
2023-02-06T12:09:13.349Z,6.70
2023-02-06T12:11:50.594Z,7.40
2023-02-06T12:14:42.628Z,7.10
2023-02-06T12:17:20.154Z,6.30
2023-02-06T12:19:55.396Z,12.40
2023-02-06T12:22:25.582Z,6.60
2023-02-06T12:25:00.259Z,7.20
2023-02-06T12:27:37.746Z,8.80
2023-02-06T12:30:32.086Z,7.60
2023-02-06T12:33:15.439Z,6.10
2023-02-06T12:35:59.544Z,6.70
2023-02-06T12:38:42.981Z,5.50
2023-02-06T12:41:43.695Z,7.10
2023-02-06T12:44:20.689Z,5.90
2023-02-06T12:47:06.377Z,6.40
2023-02-06T12:50:01.432Z,7.20
2023-02-06T12:52:50.774Z,7.70
2023-02-06T12:55:31.621Z,6.60
2023-02-06T12:58:00.730Z,6.50
2023-02-06T13:00:55.331Z,6.40
2023-02-06T13:03:27.947Z,5.90
2023-02-06T13:06:18.385Z,6.60
2023-02-06T13:09:02.795Z,6.10
2023-02-06T13:11:40.724Z,6.00
2023-02-06T13:14:22.540Z,6.20
2023-02-06T13:17:11.846Z,8.10
2023-02-06T13:19:40.285Z,6.90
2023-02-06T13:22:08.460Z,7.30
2023-02-06T13:24:38.505Z,6.40
2023-02-06T13:27:09.602Z,5.30
2023-02-06T13:29:37.893Z,8.10
2023-02-06T13:32:22.855Z,7.30
2023-02-06T13:35:00.511Z,12.20
2023-02-06T13:37:48.173Z,9.90
2023-02-06T13:40:32.347Z,8.60
2023-02-06T13:43:00.400Z,6.70
2023-02-06T13:45:48.050Z,4.50
2023-02-06T13:48:22.153Z,7.10
2023-02-06T13:51:09.163Z,6.20
2023-02-06T13:53:57.415Z,7.60
2023-02-06T13:56:57.983Z,7.50
2023-02-06T13:59:34.807Z,6.90
2023-02-06T14:02:36.602Z,4.80
2023-02-06T14:05:10.869Z,5.50
2023-02-06T14:07:59.890Z,5.10
2023-02-06T14:10:46.262Z,6.70
2023-02-06T14:13:23.336Z,7.10
2023-02-06T14:16:33.524Z,7.00
2023-02-06T14:19:04.663Z,6.00
2023-02-06T14:21:38.824Z,7.80
2023-02-06T14:24:39.533Z,7.50
2023-02-06T14:27:32.988Z,7.20
2023-02-06T14:30:27.447Z,7.30
2023-02-06T14:33:08.018Z,7.90
2023-02-06T14:36:13.881Z,8.80
2023-02-06T14:38:48.071Z,13.10
2023-02-06T14:41:17.493Z,14.10
2023-02-06T14:43:48.905Z,16.90
2023-02-06T14:46:19.576Z,13.20
2023-02-06T14:48:52.045Z,11.90
2023-02-06T14:51:31.886Z,9.40
2023-02-06T14:54:02.917Z,9.70
2023-02-06T14:56:36.829Z,10.10
2023-02-06T14:59:14.222Z,9.80
2023-02-06T15:01:44.701Z,8.20
2023-02-06T15:04:16.269Z,7.80
2023-02-06T15:06:52.758Z,7.00
2023-02-06T15:09:27.968Z,6.40
2023-02-06T15:11:59.940Z,6.80
2023-02-06T15:14:33.891Z,4.70
2023-02-06T15:17:02.986Z,4.10
2023-02-06T15:19:35.680Z,4.40
2023-02-06T15:22:13.296Z,3.90
2023-02-06T15:25:19.361Z,3.80
2023-02-06T15:27:47.532Z,3.70
2023-02-06T15:30:22.191Z,3.70
2023-02-06T15:32:53.056Z,3.70
2023-02-06T15:35:41.600Z,3.70
2023-02-06T15:38:15.238Z,4.20
2023-02-06T15:40:53.511Z,3.80
2023-02-06T15:43:27.481Z,4.70
2023-02-06T15:45:58.731Z,4.30
2023-02-06T15:48:43.755Z,3.40
2023-02-06T15:51:21.534Z,2.90
2023-02-06T15:53:51.918Z,2.80
2023-02-06T15:56:25.726Z,3.50
2023-02-06T15:59:00.165Z,4.30
2023-02-06T16:01:31.910Z,3.70
2023-02-06T16:04:08.010Z,4.20
2023-02-06T16:06:37.421Z,4.20
2023-02-06T16:09:08.779Z,3.40
2023-02-06T16:11:51.298Z,3.30
2023-02-06T16:14:28.446Z,2.50
2023-02-06T16:16:59.637Z,3.00
2023-02-06T16:19:41.891Z,2.40
2023-02-06T16:22:34.947Z,2.80
2023-02-06T16:25:14.347Z,3.00
2023-02-06T16:27:46.301Z,2.80
2023-02-06T16:30:35.145Z,3.60
2023-02-06T16:33:25.807Z,3.10
2023-02-06T16:35:54.184Z,3.10
2023-02-06T16:38:22.351Z,3.60
2023-02-06T16:40:50.831Z,2.80
2023-02-06T16:43:20.396Z,3.30
2023-02-06T16:45:50.010Z,3.00
2023-02-06T16:48:18.257Z,3.40
2023-02-06T16:50:48.572Z,3.80
2023-02-06T16:53:22.219Z,3.40
2023-02-06T16:55:50.962Z,3.80
2023-02-06T16:58:21.666Z,4.00
2023-02-06T17:00:51.995Z,3.70
2023-02-06T17:03:20.137Z,3.00
2023-02-06T17:05:50.421Z,3.50
2023-02-06T17:08:21.875Z,3.70
2023-02-06T17:10:50.790Z,3.50
2023-02-06T17:13:22.120Z,3.80
2023-02-06T17:15:54.760Z,4.20
2023-02-06T17:18:23.969Z,3.40
2023-02-06T17:20:53.249Z,3.40
2023-02-06T17:23:21.365Z,3.70
2023-02-06T17:25:51.033Z,3.50
2023-02-06T17:28:20.813Z,3.90
2023-02-06T17:30:50.991Z,4.30
2023-02-06T17:33:19.425Z,3.90
2023-02-06T17:35:48.638Z,4.40
2023-02-06T17:38:16.812Z,3.80
2023-02-06T17:40:45.167Z,3.30
2023-02-06T17:43:13.276Z,3.30
2023-02-06T17:45:41.544Z,3.40
2023-02-06T17:48:09.774Z,3.60
2023-02-06T17:50:40.857Z,3.60
2023-02-06T17:53:12.651Z,4.20
2023-02-06T17:55:41.206Z,3.70
2023-02-06T17:58:10.088Z,3.80
2023-02-06T18:00:38.614Z,2.90
2023-02-06T18:03:07.174Z,2.40
2023-02-06T18:05:35.531Z,2.20
2023-02-06T18:08:03.965Z,3.60
2023-02-06T18:10:32.081Z,2.90
2023-02-06T18:13:00.458Z,4.20
2023-02-06T18:15:30.923Z,2.60
2023-02-06T18:18:00.293Z,3.70
2023-02-06T18:20:28.371Z,3.40
2023-02-06T18:22:56.391Z,4.20
2023-02-06T18:25:24.707Z,3.90
2023-02-06T18:27:52.893Z,3.60
2023-02-06T18:30:21.201Z,3.50
2023-02-06T18:32:49.325Z,3.30
2023-02-06T18:35:17.704Z,3.70
2023-02-06T18:37:45.761Z,3.70
2023-02-06T18:40:13.946Z,3.60
2023-02-06T18:42:51.828Z,3.50
2023-02-06T18:45:25.386Z,3.40
2023-02-06T18:47:53.522Z,3.80
2023-02-06T18:50:22.208Z,2.60
2023-02-06T18:52:50.791Z,2.40
2023-02-06T18:55:19.990Z,3.70
2023-02-06T18:57:48.571Z,2.40
2023-02-06T19:00:19.631Z,3.30
2023-02-06T19:02:48.396Z,3.30
2023-02-06T19:05:17.082Z,4.40
2023-02-06T19:07:50.375Z,2.40
2023-02-06T19:10:19.930Z,3.60
2023-02-06T19:12:48.248Z,3.70
2023-02-06T19:15:16.293Z,4.00
2023-02-06T19:17:44.609Z,4.10
2023-02-06T19:20:13.066Z,3.40
2023-02-06T19:22:41.105Z,3.40
2023-02-06T19:25:14.061Z,3.50
2023-02-06T19:27:42.733Z,2.80
2023-02-06T19:30:13.108Z,4.20
2023-02-06T19:32:41.348Z,4.00
2023-02-06T19:35:12.048Z,2.00
2023-02-06T19:37:40.646Z,3.40
2023-02-06T19:40:09.342Z,2.20
2023-02-06T19:42:38.635Z,3.30
2023-02-06T19:45:07.357Z,4.00
2023-02-06T19:47:36.220Z,4.10
2023-02-06T19:50:05.395Z,4.10
2023-02-06T19:52:35.400Z,3.90
2023-02-06T19:55:04.279Z,1.90
2023-02-06T19:57:32.616Z,3.80
2023-02-06T20:00:00.749Z,2.80
2023-02-06T20:02:29.748Z,3.30
2023-02-06T20:04:58.151Z,4.90
2023-02-06T20:07:27.001Z,5.80
2023-02-06T20:09:56.112Z,5.10
2023-02-06T20:12:24.185Z,5.20
2023-02-06T20:14:52.561Z,5.40
2023-02-06T20:17:20.634Z,4.40
2023-02-06T20:19:48.823Z,2.90
2023-02-06T20:22:17.183Z,5.20
2023-02-06T20:24:45.355Z,3.70
2023-02-06T20:27:14.572Z,5.80
2023-02-06T20:29:43.558Z,5.50
2023-02-06T20:32:12.453Z,5.90
2023-02-06T20:34:40.599Z,5.90
2023-02-06T20:37:08.688Z,6.30
2023-02-06T20:39:37.166Z,5.60
2023-02-06T20:42:05.351Z,5.90
2023-02-06T20:44:33.291Z,3.90
2023-02-06T20:47:01.440Z,7.20
2023-02-06T20:49:31.318Z,6.70
2023-02-06T20:51:59.838Z,6.70
2023-02-06T20:54:28.240Z,6.00
2023-02-06T20:56:56.521Z,5.70
2023-02-06T20:59:24.811Z,6.20
2023-02-06T21:01:52.852Z,6.30
2023-02-06T21:04:21.254Z,5.90
2023-02-06T21:06:50.176Z,6.90
2023-02-06T21:09:18.647Z,4.40
2023-02-06T21:11:49.356Z,4.70
2023-02-06T21:14:18.608Z,6.60
2023-02-06T21:16:47.554Z,3.90
2023-02-06T21:19:17.953Z,5.80
2023-02-06T21:21:46.621Z,5.60
2023-02-06T21:24:15.670Z,4.90
2023-02-06T21:26:44.555Z,6.60
2023-02-06T21:29:13.915Z,4.80
2023-02-06T21:31:43.366Z,5.10
2023-02-06T21:34:17.653Z,6.20
2023-02-06T21:36:46.057Z,7.30
2023-02-06T21:39:22.002Z,6.40
2023-02-06T21:41:53.953Z,6.20
2023-02-06T21:44:24.500Z,6.40
2023-02-06T21:46:53.533Z,6.90
2023-02-06T21:49:23.494Z,6.60
2023-02-06T21:51:53.319Z,5.50
2023-02-06T21:54:22.514Z,6.20
2023-02-06T21:56:51.500Z,5.80
2023-02-06T21:59:19.532Z,5.60
2023-02-06T22:01:47.611Z,5.50
2023-02-06T22:04:15.717Z,6.20
2023-02-06T22:06:43.806Z,5.90
2023-02-06T22:09:16.976Z,3.90
2023-02-06T22:11:45.220Z,5.10
2023-02-06T22:14:16.029Z,5.20
2023-02-06T22:16:46.961Z,8.40
2023-02-06T22:19:16.237Z,6.20
2023-02-06T22:21:44.612Z,5.40
2023-02-06T22:24:13.358Z,6.20
2023-02-06T22:26:41.702Z,5.80
2023-02-06T22:29:17.930Z,5.80
2023-02-06T22:31:46.353Z,6.20
2023-02-06T22:34:20.619Z,7.90
2023-02-06T22:36:51.255Z,5.80
2023-02-06T22:39:19.651Z,4.50
2023-02-06T22:41:48.469Z,5.20
2023-02-06T22:44:17.931Z,4.60
2023-02-06T22:46:50.102Z,6.00
2023-02-06T22:49:20.406Z,6.70
2023-02-06T22:51:48.688Z,5.50
2023-02-06T22:54:16.746Z,4.40
2023-02-06T22:56:45.972Z,5.50
2023-02-06T22:59:16.977Z,5.40
2023-02-06T23:01:48.167Z,5.30
2023-02-06T23:04:22.668Z,4.30
2023-02-06T23:06:52.167Z,3.90
2023-02-06T23:09:23.876Z,4.30
2023-02-06T23:11:53.434Z,8.30
2023-02-06T23:14:21.609Z,4.00
2023-02-06T23:16:49.791Z,4.80
2023-02-06T23:19:19.092Z,4.70
2023-02-06T23:21:49.323Z,4.00
2023-02-06T23:24:18.321Z,3.30
2023-02-06T23:26:48.943Z,3.40
2023-02-06T23:29:19.178Z,3.80
2023-02-06T23:31:48.227Z,4.10
2023-02-06T23:34:18.361Z,3.80
2023-02-06T23:36:46.863Z,4.70
2023-02-06T23:39:16.159Z,5.80
2023-02-06T23:41:44.419Z,4.10
2023-02-06T23:44:12.905Z,2.70
2023-02-06T23:46:42.000Z,3.10
2023-02-06T23:49:10.675Z,5.10
2023-02-06T23:51:39.149Z,3.90
2023-02-06T23:54:08.610Z,1.80
2023-02-06T23:56:37.074Z,3.00
2023-02-06T23:59:06.770Z,3.40
